sensor_id;sensor_type;location;lat;lon;timestamp;pressure;altitude;pressure_sealevel;temperature;humidity
31771;BME280;18343;50.152;8.182;2023-04-20T00:01:49;97594.84;;;6.49;49.64
31771;BME280;18343;50.152;8.182;2023-04-20T00:04:34;97600.34;;;6.47;49.93
31771;BME280;18343;50.152;8.182;2023-04-20T00:07:18;97600.00;;;6.42;49.80
31771;BME280;18343;50.152;8.182;2023-04-20T00:10:04;97587.28;;;6.36;49.82
31771;BME280;18343;50.152;8.182;2023-04-20T00:12:49;97582.59;;;6.30;50.14
31771;BME280;18343;50.152;8.182;2023-04-20T00:15:33;97580.09;;;6.28;50.19
31771;BME280;18343;50.152;8.182;2023-04-20T00:18:19;97575.09;;;6.25;50.34
31771;BME280;18343;50.152;8.182;2023-04-20T00:21:05;97570.06;;;6.22;50.68
31771;BME280;18343;50.152;8.182;2023-04-20T00:23:49;97565.72;;;6.21;50.55
31771;BME280;18343;50.152;8.182;2023-04-20T00:26:34;97561.69;;;6.17;50.74
31771;BME280;18343;50.152;8.182;2023-04-20T00:29:19;97555.84;;;6.14;50.68
31771;BME280;18343;50.152;8.182;2023-04-20T00:32:04;97550.97;;;6.09;50.99
31771;BME280;18343;50.152;8.182;2023-04-20T00:34:50;97546.81;;;6.06;51.08
31771;BME280;18343;50.152;8.182;2023-04-20T00:37:34;97545.44;;;6.02;51.17
31771;BME280;18343;50.152;8.182;2023-04-20T00:40:19;97535.97;;;6.00;51.52
31771;BME280;18343;50.152;8.182;2023-04-20T00:43:09;97537.75;;;5.91;51.25
31771;BME280;18343;50.152;8.182;2023-04-20T00:45:54;97536.00;;;5.82;51.80
31771;BME280;18343;50.152;8.182;2023-04-20T00:48:38;97543.50;;;5.78;51.86
31771;BME280;18343;50.152;8.182;2023-04-20T00:51:25;97530.28;;;5.69;51.70
31771;BME280;18343;50.152;8.182;2023-04-20T00:54:11;97521.94;;;5.64;52.26
31771;BME280;18343;50.152;8.182;2023-04-20T00:56:56;97521.09;;;5.63;52.08
31771;BME280;18343;50.152;8.182;2023-04-20T00:59:41;97506.75;;;5.64;52.62
31771;BME280;18343;50.152;8.182;2023-04-20T01:02:26;97504.88;;;5.57;52.38
31771;BME280;18343;50.152;8.182;2023-04-20T01:05:11;97499.19;;;5.52;52.83
31771;BME280;18343;50.152;8.182;2023-04-20T01:07:57;97496.69;;;5.50;53.13
31771;BME280;18343;50.152;8.182;2023-04-20T01:10:41;97494.16;;;5.49;53.06
31771;BME280;18343;50.152;8.182;2023-04-20T01:13:26;97483.84;;;5.46;52.99
31771;BME280;18343;50.152;8.182;2023-04-20T01:16:11;97484.16;;;5.42;53.44
31771;BME280;18343;50.152;8.182;2023-04-20T01:18:55;97474.97;;;5.37;53.66
31771;BME280;18343;50.152;8.182;2023-04-20T01:21:40;97485.94;;;5.34;53.79
31771;BME280;18343;50.152;8.182;2023-04-20T01:24:26;97476.41;;;5.31;53.78
31771;BME280;18343;50.152;8.182;2023-04-20T01:27:10;97480.91;;;5.31;54.01
31771;BME280;18343;50.152;8.182;2023-04-20T01:29:55;97481.38;;;5.26;54.09
31771;BME280;18343;50.152;8.182;2023-04-20T01:32:39;97476.53;;;5.22;54.40
31771;BME280;18343;50.152;8.182;2023-04-20T01:35:24;97470.19;;;5.23;54.54
31771;BME280;18343;50.152;8.182;2023-04-20T01:38:09;97467.50;;;5.15;54.13
31771;BME280;18343;50.152;8.182;2023-04-20T01:40:55;97468.97;;;5.09;54.38
31771;BME280;18343;50.152;8.182;2023-04-20T01:43:40;97466.84;;;5.13;54.63
31771;BME280;18343;50.152;8.182;2023-04-20T01:46:24;97459.53;;;5.15;55.28
31771;BME280;18343;50.152;8.182;2023-04-20T01:49:09;97460.66;;;5.12;55.42
31771;BME280;18343;50.152;8.182;2023-04-20T01:51:54;97452.50;;;5.14;55.68
31771;BME280;18343;50.152;8.182;2023-04-20T01:54:38;97457.69;;;5.15;55.67
31771;BME280;18343;50.152;8.182;2023-04-20T01:57:24;97455.03;;;5.15;55.70
31771;BME280;18343;50.152;8.182;2023-04-20T02:00:10;97454.88;;;5.17;55.89
31771;BME280;18343;50.152;8.182;2023-04-20T02:02:55;97454.03;;;5.16;55.92
31771;BME280;18343;50.152;8.182;2023-04-20T02:05:39;97449.84;;;5.14;55.86
31771;BME280;18343;50.152;8.182;2023-04-20T02:08:23;97444.19;;;5.17;56.52
31771;BME280;18343;50.152;8.182;2023-04-20T02:11:08;97438.88;;;5.17;56.72
31771;BME280;18343;50.152;8.182;2023-04-20T02:13:54;97441.22;;;5.20;56.84
31771;BME280;18343;50.152;8.182;2023-04-20T02:16:39;97443.69;;;5.21;56.82
31771;BME280;18343;50.152;8.182;2023-04-20T02:19:24;97437.81;;;5.09;55.84
31771;BME280;18343;50.152;8.182;2023-04-20T02:22:08;97438.59;;;5.02;56.84
31771;BME280;18343;50.152;8.182;2023-04-20T02:24:53;97436.31;;;5.07;57.46
31771;BME280;18343;50.152;8.182;2023-04-20T02:27:38;97438.28;;;5.05;57.93
31771;BME280;18343;50.152;8.182;2023-04-20T02:30:24;97434.28;;;5.01;57.87
31771;BME280;18343;50.152;8.182;2023-04-20T02:33:08;97430.25;;;4.97;57.85
31771;BME280;18343;50.152;8.182;2023-04-20T02:35:53;97426.44;;;4.99;58.13
31771;BME280;18343;50.152;8.182;2023-04-20T02:38:38;97422.31;;;5.05;58.46
31771;BME280;18343;50.152;8.182;2023-04-20T02:41:22;97420.84;;;5.10;58.69
31771;BME280;18343;50.152;8.182;2023-04-20T02:44:07;97419.38;;;5.16;58.90
31771;BME280;18343;50.152;8.182;2023-04-20T02:46:52;97409.03;;;5.21;58.93
31771;BME280;18343;50.152;8.182;2023-04-20T02:49:37;97401.25;;;5.20;58.89
31771;BME280;18343;50.152;8.182;2023-04-20T02:52:21;97411.06;;;5.19;59.17
31771;BME280;18343;50.152;8.182;2023-04-20T02:55:07;97405.53;;;5.21;59.29
31771;BME280;18343;50.152;8.182;2023-04-20T02:57:52;97393.56;;;5.25;59.60
31771;BME280;18343;50.152;8.182;2023-04-20T03:00:36;97391.41;;;5.28;60.08
31771;BME280;18343;50.152;8.182;2023-04-20T03:03:22;97388.78;;;5.36;60.40
31771;BME280;18343;50.152;8.182;2023-04-20T03:06:07;97386.00;;;5.46;60.96
31771;BME280;18343;50.152;8.182;2023-04-20T03:08:52;97384.19;;;5.55;61.28
31771;BME280;18343;50.152;8.182;2023-04-20T03:11:36;97385.72;;;5.65;61.69
31771;BME280;18343;50.152;8.182;2023-04-20T03:14:20;97384.72;;;5.74;61.95
31771;BME280;18343;50.152;8.182;2023-04-20T03:17:06;97383.72;;;5.75;62.22
31771;BME280;18343;50.152;8.182;2023-04-20T03:19:51;97390.72;;;5.76;61.77
31771;BME280;18343;50.152;8.182;2023-04-20T03:22:36;97388.41;;;5.82;62.00
31771;BME280;18343;50.152;8.182;2023-04-20T03:25:21;97388.59;;;5.88;62.42
31771;BME280;18343;50.152;8.182;2023-04-20T03:28:06;97384.47;;;5.94;62.20
31771;BME280;18343;50.152;8.182;2023-04-20T03:30:50;97377.28;;;5.94;62.69
31771;BME280;18343;50.152;8.182;2023-04-20T03:33:35;97373.97;;;6.00;63.50
31771;BME280;18343;50.152;8.182;2023-04-20T03:36:21;97371.94;;;6.10;63.73
31771;BME280;18343;50.152;8.182;2023-04-20T03:39:07;97373.47;;;6.21;64.11
31771;BME280;18343;50.152;8.182;2023-04-20T03:41:51;97368.31;;;6.28;64.71
31771;BME280;18343;50.152;8.182;2023-04-20T03:44:36;97362.28;;;6.34;64.62
31771;BME280;18343;50.152;8.182;2023-04-20T03:47:20;97364.78;;;6.43;65.20
31771;BME280;18343;50.152;8.182;2023-04-20T03:50:06;97352.75;;;6.56;65.59
31771;BME280;18343;50.152;8.182;2023-04-20T03:52:52;97356.56;;;6.61;65.34
31771;BME280;18343;50.152;8.182;2023-04-20T03:55:36;97356.88;;;6.66;65.77
31771;BME280;18343;50.152;8.182;2023-04-20T03:58:21;97362.38;;;6.73;65.57
31771;BME280;18343;50.152;8.182;2023-04-20T04:01:06;97355.69;;;6.77;65.82
31771;BME280;18343;50.152;8.182;2023-04-20T04:03:51;97362.88;;;6.76;65.81
31771;BME280;18343;50.152;8.182;2023-04-20T04:06:35;97360.03;;;6.78;66.27
31771;BME280;18343;50.152;8.182;2023-04-20T04:09:21;97363.38;;;6.80;66.06
31771;BME280;18343;50.152;8.182;2023-04-20T04:12:06;97347.19;;;6.82;66.21
31771;BME280;18343;50.152;8.182;2023-04-20T04:14:51;97348.69;;;6.76;66.22
31771;BME280;18343;50.152;8.182;2023-04-20T04:17:35;97349.88;;;6.73;67.16
31771;BME280;18343;50.152;8.182;2023-04-20T04:20:20;97352.19;;;6.76;67.33
31771;BME280;18343;50.152;8.182;2023-04-20T04:23:05;97346.34;;;6.73;67.70
31771;BME280;18343;50.152;8.182;2023-04-20T04:25:51;97343.34;;;6.68;68.32
31771;BME280;18343;50.152;8.182;2023-04-20T04:28:36;97340.03;;;6.66;68.38
31771;BME280;18343;50.152;8.182;2023-04-20T04:31:20;97343.53;;;6.66;68.53
31771;BME280;18343;50.152;8.182;2023-04-20T04:34:05;97338.00;;;6.68;69.80
31771;BME280;18343;50.152;8.182;2023-04-20T04:36:49;97338.00;;;6.68;68.84
31771;BME280;18343;50.152;8.182;2023-04-20T04:39:34;97341.53;;;6.68;69.52
31771;BME280;18343;50.152;8.182;2023-04-20T04:42:21;97340.84;;;6.74;69.88
31771;BME280;18343;50.152;8.182;2023-04-20T04:45:07;97338.16;;;6.74;69.49
31771;BME280;18343;50.152;8.182;2023-04-20T04:47:53;97335.50;;;6.74;70.38
31771;BME280;18343;50.152;8.182;2023-04-20T04:50:37;97344.19;;;6.76;71.25
31771;BME280;18343;50.152;8.182;2023-04-20T04:53:22;97331.47;;;6.78;70.80
31771;BME280;18343;50.152;8.182;2023-04-20T04:56:07;97339.84;;;6.75;70.98
31771;BME280;18343;50.152;8.182;2023-04-20T04:58:53;97332.31;;;6.79;71.47
31771;BME280;18343;50.152;8.182;2023-04-20T05:01:37;97335.81;;;6.79;71.42
31771;BME280;18343;50.152;8.182;2023-04-20T05:04:26;97332.59;;;6.84;72.06
31771;BME280;18343;50.152;8.182;2023-04-20T05:07:10;97334.09;;;6.87;72.58
31771;BME280;18343;50.152;8.182;2023-04-20T05:09:55;97331.25;;;6.88;72.48
31771;BME280;18343;50.152;8.182;2023-04-20T05:12:39;97333.44;;;6.93;72.94
31771;BME280;18343;50.152;8.182;2023-04-20T05:15:26;97332.91;;;6.97;72.76
31771;BME280;18343;50.152;8.182;2023-04-20T05:18:10;97331.25;;;6.96;73.25
31771;BME280;18343;50.152;8.182;2023-04-20T05:20:55;97334.94;;;6.95;73.06
31771;BME280;18343;50.152;8.182;2023-04-20T05:23:40;97324.56;;;6.92;73.58
31771;BME280;18343;50.152;8.182;2023-04-20T05:26:24;97329.91;;;6.92;73.90
31771;BME280;18343;50.152;8.182;2023-04-20T05:29:09;97335.94;;;6.94;73.83
31771;BME280;18343;50.152;8.182;2023-04-20T05:31:55;97332.59;;;6.92;74.01
31771;BME280;18343;50.152;8.182;2023-04-20T05:34:39;97337.09;;;6.92;74.30
31771;BME280;18343;50.152;8.182;2023-04-20T05:37:24;97339.94;;;6.90;74.15
31771;BME280;18343;50.152;8.182;2023-04-20T05:40:09;97341.13;;;6.88;74.56
31771;BME280;18343;50.152;8.182;2023-04-20T05:42:54;97334.09;;;6.87;74.77
31771;BME280;18343;50.152;8.182;2023-04-20T05:45:39;97332.28;;;6.87;75.51
31771;BME280;18343;50.152;8.182;2023-04-20T05:48:25;97339.78;;;6.92;75.70
31771;BME280;18343;50.152;8.182;2023-04-20T05:51:09;97333.59;;;6.91;75.63
31771;BME280;18343;50.152;8.182;2023-04-20T05:53:54;97334.94;;;6.87;76.21
31771;BME280;18343;50.152;8.182;2023-04-20T05:56:38;97334.78;;;6.89;76.62
31771;BME280;18343;50.152;8.182;2023-04-20T05:59:23;97335.47;;;6.83;75.69
31771;BME280;18343;50.152;8.182;2023-04-20T06:02:08;97335.31;;;6.76;76.12
31771;BME280;18343;50.152;8.182;2023-04-20T06:04:54;97338.50;;;6.71;76.81
31771;BME280;18343;50.152;8.182;2023-04-20T06:07:39;97332.31;;;6.71;77.06
31771;BME280;18343;50.152;8.182;2023-04-20T06:10:23;97339.50;;;6.70;76.83
31771;BME280;18343;50.152;8.182;2023-04-20T06:13:08;97334.69;;;6.66;77.58
31771;BME280;18343;50.152;8.182;2023-04-20T06:15:52;97338.00;;;6.68;78.24
31771;BME280;18343;50.152;8.182;2023-04-20T06:18:37;97332.66;;;6.68;77.72
31771;BME280;18343;50.152;8.182;2023-04-20T06:21:23;97343.34;;;6.68;78.65
31771;BME280;18343;50.152;8.182;2023-04-20T06:24:08;97339.34;;;6.72;79.05
31771;BME280;18343;50.152;8.182;2023-04-20T06:26:52;97341.50;;;6.76;79.42
31771;BME280;18343;50.152;8.182;2023-04-20T06:29:37;97337.84;;;6.77;80.24
31771;BME280;18343;50.152;8.182;2023-04-20T06:32:22;97350.19;;;6.78;79.71
31771;BME280;18343;50.152;8.182;2023-04-20T06:35:07;97349.00;;;6.81;80.30
31771;BME280;18343;50.152;8.182;2023-04-20T06:37:53;97342.00;;;6.80;79.43
31771;BME280;18343;50.152;8.182;2023-04-20T06:40:38;97347.53;;;6.78;80.08
31771;BME280;18343;50.152;8.182;2023-04-20T06:43:22;97340.00;;;6.74;79.97
31771;BME280;18343;50.152;8.182;2023-04-20T06:46:07;97345.03;;;6.69;79.85
31771;BME280;18343;50.152;8.182;2023-04-20T06:48:51;97343.53;;;6.66;80.84
31771;BME280;18343;50.152;8.182;2023-04-20T06:51:35;97337.00;;;6.69;81.17
31771;BME280;18343;50.152;8.182;2023-04-20T06:54:21;97339.69;;;6.69;80.94
31771;BME280;18343;50.152;8.182;2023-04-20T06:57:06;97337.50;;;6.72;82.05
31771;BME280;18343;50.152;8.182;2023-04-20T06:59:51;97344.50;;;6.82;82.71
31771;BME280;18343;50.152;8.182;2023-04-20T07:02:43;97336.78;;;6.87;82.29
31771;BME280;18343;50.152;8.182;2023-04-20T07:05:28;97342.63;;;6.90;82.51
31771;BME280;18343;50.152;8.182;2023-04-20T07:08:12;97341.94;;;6.96;82.84
31771;BME280;18343;50.152;8.182;2023-04-20T07:10:59;97342.59;;;7.06;83.39
31771;BME280;18343;50.152;8.182;2023-04-20T07:13:43;97346.22;;;7.13;84.18
31771;BME280;18343;50.152;8.182;2023-04-20T07:16:28;97338.50;;;7.19;83.65
31771;BME280;18343;50.152;8.182;2023-04-20T07:19:12;97347.38;;;7.19;83.03
31771;BME280;18343;50.152;8.182;2023-04-20T07:21:57;97337.19;;;7.14;83.31
31771;BME280;18343;50.152;8.182;2023-04-20T07:24:42;97335.16;;;7.17;84.25
31771;BME280;18343;50.152;8.182;2023-04-20T07:27:28;97345.03;;;7.16;83.80
31771;BME280;18343;50.152;8.182;2023-04-20T07:30:13;97338.50;;;7.19;84.19
31771;BME280;18343;50.152;8.182;2023-04-20T07:32:58;97341.66;;;7.22;84.59
31771;BME280;18343;50.152;8.182;2023-04-20T07:35:42;97330.13;;;7.22;83.97
31771;BME280;18343;50.152;8.182;2023-04-20T07:38:27;97330.97;;;7.22;84.85
31771;BME280;18343;50.152;8.182;2023-04-20T07:41:11;97327.28;;;7.23;85.84
31771;BME280;18343;50.152;8.182;2023-04-20T07:43:57;97332.28;;;7.26;85.10
31771;BME280;18343;50.152;8.182;2023-04-20T07:46:41;97336.50;;;7.21;84.82
31771;BME280;18343;50.152;8.182;2023-04-20T07:49:26;97339.16;;;7.21;85.58
31771;BME280;18343;50.152;8.182;2023-04-20T07:52:11;97332.28;;;7.26;86.28
31771;BME280;18343;50.152;8.182;2023-04-20T07:54:56;97329.09;;;7.31;86.40
31771;BME280;18343;50.152;8.182;2023-04-20T07:57:40;97336.44;;;7.37;86.77
31771;BME280;18343;50.152;8.182;2023-04-20T08:00:26;97331.09;;;7.37;86.37
31771;BME280;18343;50.152;8.182;2023-04-20T08:03:11;97332.09;;;7.36;86.76
31771;BME280;18343;50.152;8.182;2023-04-20T08:05:56;97335.03;;;7.41;87.40
31771;BME280;18343;50.152;8.182;2023-04-20T08:08:40;97343.91;;;7.41;86.89
31771;BME280;18343;50.152;8.182;2023-04-20T08:11:25;97345.47;;;7.36;86.08
31771;BME280;18343;50.152;8.182;2023-04-20T08:14:09;97339.09;;;7.37;86.86
31771;BME280;18343;50.152;8.182;2023-04-20T08:16:55;97342.41;;;7.39;86.99
31771;BME280;18343;50.152;8.182;2023-04-20T08:19:40;97339.81;;;7.31;87.04
31771;BME280;18343;50.152;8.182;2023-04-20T08:22:24;97343.47;;;7.30;87.58
31771;BME280;18343;50.152;8.182;2023-04-20T08:25:09;97345.28;;;7.37;87.80
31771;BME280;18343;50.152;8.182;2023-04-20T08:27:54;97336.84;;;7.48;89.50
31771;BME280;18343;50.152;8.182;2023-04-20T08:30:39;97328.09;;;7.63;90.16
31771;BME280;18343;50.152;8.182;2023-04-20T08:33:25;97337.19;;;7.76;88.85
31771;BME280;18343;50.152;8.182;2023-04-20T08:36:10;97335.16;;;7.78;88.67
31771;BME280;18343;50.152;8.182;2023-04-20T08:39:03;97329.47;;;7.81;88.92
31771;BME280;18343;50.152;8.182;2023-04-20T08:41:49;97319.72;;;7.89;89.77
31771;BME280;18343;50.152;8.182;2023-04-20T08:44:34;97330.34;;;7.97;90.30
31771;BME280;18343;50.152;8.182;2023-04-20T08:47:19;97334.97;;;8.03;90.22
31771;BME280;18343;50.152;8.182;2023-04-20T08:50:07;97330.94;;;8.07;89.67
31771;BME280;18343;50.152;8.182;2023-04-20T08:52:52;97331.28;;;8.04;89.27
31771;BME280;18343;50.152;8.182;2023-04-20T08:55:36;97335.66;;;8.05;90.20
31771;BME280;18343;50.152;8.182;2023-04-20T08:58:21;97334.63;;;8.06;89.61
31771;BME280;18343;50.152;8.182;2023-04-20T09:01:06;97341.19;;;8.03;89.23
31771;BME280;18343;50.152;8.182;2023-04-20T09:03:51;97335.66;;;8.05;90.01
31771;BME280;18343;50.152;8.182;2023-04-20T09:06:43;97332.00;;;7.98;90.73
31771;BME280;18343;50.152;8.182;2023-04-20T09:09:27;97335.28;;;7.85;91.32
31771;BME280;18343;50.152;8.182;2023-04-20T09:12:12;97334.78;;;7.90;91.04
31771;BME280;18343;50.152;8.182;2023-04-20T09:14:56;97329.69;;;7.95;91.36
31771;BME280;18343;50.152;8.182;2023-04-20T09:17:41;97326.00;;;7.96;91.32
31771;BME280;18343;50.152;8.182;2023-04-20T09:20:29;97318.56;;;8.06;90.65
31771;BME280;18343;50.152;8.182;2023-04-20T09:23:17;97322.09;;;8.21;91.77
31771;BME280;18343;50.152;8.182;2023-04-20T09:26:02;97326.22;;;8.32;92.19
31771;BME280;18343;50.152;8.182;2023-04-20T09:28:47;97323.88;;;8.52;92.46
31771;BME280;18343;50.152;8.182;2023-04-20T09:31:35;97317.53;;;8.67;94.12
31771;BME280;18343;50.152;8.182;2023-04-20T09:34:22;97318.81;;;8.86;94.02
31771;BME280;18343;50.152;8.182;2023-04-20T09:37:08;97312.78;;;9.13;94.20
31771;BME280;18343;50.152;8.182;2023-04-20T09:39:59;97317.00;;;9.37;94.21
31771;BME280;18343;50.152;8.182;2023-04-20T09:42:44;97312.75;;;9.43;93.18
31771;BME280;18343;50.152;8.182;2023-04-20T09:45:30;97307.28;;;9.51;93.72
31771;BME280;18343;50.152;8.182;2023-04-20T09:48:15;97307.09;;;9.53;93.24
31771;BME280;18343;50.152;8.182;2023-04-20T09:51:01;97306.47;;;9.72;93.63
31771;BME280;18343;50.152;8.182;2023-04-20T09:53:45;97305.44;;;9.73;92.12
31771;BME280;18343;50.152;8.182;2023-04-20T09:56:33;97296.75;;;9.71;91.83
31771;BME280;18343;50.152;8.182;2023-04-20T09:59:18;97300.16;;;9.79;93.29
31771;BME280;18343;50.152;8.182;2023-04-20T10:02:07;97293.88;;;9.94;92.83
31771;BME280;18343;50.152;8.182;2023-04-20T10:04:53;97299.78;;;9.82;91.59
31771;BME280;18343;50.152;8.182;2023-04-20T10:07:37;97293.03;;;9.93;91.64
31771;BME280;18343;50.152;8.182;2023-04-20T10:10:22;97288.94;;;9.97;91.72
31771;BME280;18343;50.152;8.182;2023-04-20T10:13:08;97287.44;;;10.09;91.93
31771;BME280;18343;50.152;8.182;2023-04-20T10:15:53;97297.16;;;10.10;91.61
31771;BME280;18343;50.152;8.182;2023-04-20T10:18:37;97276.34;;;10.19;91.34
31771;BME280;18343;50.152;8.182;2023-04-20T10:21:22;97273.56;;;10.12;91.01
31771;BME280;18343;50.152;8.182;2023-04-20T10:24:07;97282.38;;;10.21;90.31
31771;BME280;18343;50.152;8.182;2023-04-20T10:26:51;97276.34;;;10.19;90.10
31771;BME280;18343;50.152;8.182;2023-04-20T10:29:37;97267.63;;;10.17;89.83
31771;BME280;18343;50.152;8.182;2023-04-20T10:32:24;97264.72;;;10.12;89.70
31771;BME280;18343;50.152;8.182;2023-04-20T10:35:10;97259.22;;;10.20;90.19
31771;BME280;18343;50.152;8.182;2023-04-20T10:37:54;97247.94;;;10.31;90.40
31771;BME280;18343;50.152;8.182;2023-04-20T10:40:39;97249.47;;;10.47;91.01
31771;BME280;18343;50.152;8.182;2023-04-20T10:43:24;97245.63;;;10.56;91.32
31771;BME280;18343;50.152;8.182;2023-04-20T10:46:18;97242.84;;;10.77;91.02
31771;BME280;18343;50.152;8.182;2023-04-20T10:49:03;97242.31;;;10.95;90.29
31771;BME280;18343;50.152;8.182;2023-04-20T10:51:48;97247.28;;;10.98;89.70
31771;BME280;18343;50.152;8.182;2023-04-20T10:54:36;97243.19;;;11.02;89.49
31771;BME280;18343;50.152;8.182;2023-04-20T10:57:21;97239.31;;;11.18;89.92
31771;BME280;18343;50.152;8.182;2023-04-20T11:00:16;97243.25;;;11.22;89.00
31771;BME280;18343;50.152;8.182;2023-04-20T11:03:03;97235.16;;;11.22;88.86
31771;BME280;18343;50.152;8.182;2023-04-20T11:05:49;97234.78;;;11.25;88.88
31771;BME280;18343;50.152;8.182;2023-04-20T11:08:38;97224.66;;;11.34;88.58
31771;BME280;18343;50.152;8.182;2023-04-20T11:11:25;97227.34;;;11.34;88.34
31771;BME280;18343;50.152;8.182;2023-04-20T11:14:11;97216.34;;;11.22;87.27
31771;BME280;18343;50.152;8.182;2023-04-20T11:16:56;97213.88;;;11.21;86.76
31771;BME280;18343;50.152;8.182;2023-04-20T11:19:42;97201.44;;;11.19;88.02
31771;BME280;18343;50.152;8.182;2023-04-20T11:22:27;97195.25;;;11.32;88.28
31771;BME280;18343;50.152;8.182;2023-04-20T11:25:11;97195.50;;;11.44;87.01
31771;BME280;18343;50.152;8.182;2023-04-20T11:28:05;97185.13;;;11.41;87.14
31771;BME280;18343;50.152;8.182;2023-04-20T11:30:49;97190.94;;;11.44;86.32
31771;BME280;18343;50.152;8.182;2023-04-20T11:33:34;97188.84;;;11.40;86.24
31771;BME280;18343;50.152;8.182;2023-04-20T11:36:21;97189.03;;;11.18;85.11
31771;BME280;18343;50.152;8.182;2023-04-20T11:39:07;97180.50;;;11.15;84.39
31771;BME280;18343;50.152;8.182;2023-04-20T11:41:52;97180.50;;;11.22;85.28
31771;BME280;18343;50.152;8.182;2023-04-20T11:44:37;97174.16;;;11.42;85.04
31771;BME280;18343;50.152;8.182;2023-04-20T11:47:21;97178.56;;;11.83;86.62
31771;BME280;18343;50.152;8.182;2023-04-20T11:50:07;97176.50;;;11.85;84.62
31771;BME280;18343;50.152;8.182;2023-04-20T11:52:53;97179.19;;;11.78;84.05
31771;BME280;18343;50.152;8.182;2023-04-20T11:55:38;97176.50;;;11.85;84.40
31771;BME280;18343;50.152;8.182;2023-04-20T11:58:22;97175.03;;;11.76;82.35
31771;BME280;18343;50.152;8.182;2023-04-20T12:01:07;97176.06;;;11.68;81.83
31771;BME280;18343;50.152;8.182;2023-04-20T12:03:51;97172.72;;;11.60;82.25
31771;BME280;18343;50.152;8.182;2023-04-20T12:06:36;97172.34;;;11.69;82.93
31771;BME280;18343;50.152;8.182;2023-04-20T12:09:41;97170.50;;;11.90;83.62
31771;BME280;18343;50.152;8.182;2023-04-20T12:12:25;97176.53;;;11.98;83.05
31771;BME280;18343;50.152;8.182;2023-04-20T12:15:10;97174.03;;;11.97;82.12
31771;BME280;18343;50.152;8.182;2023-04-20T12:17:55;97172.56;;;11.88;82.02
31771;BME280;18343;50.152;8.182;2023-04-20T12:20:40;97186.44;;;11.71;82.51
31771;BME280;18343;50.152;8.182;2023-04-20T12:23:24;97178.50;;;11.43;80.29
31771;BME280;18343;50.152;8.182;2023-04-20T12:26:10;97178.91;;;11.34;80.75
31771;BME280;18343;50.152;8.182;2023-04-20T12:28:56;97174.13;;;11.29;81.80
31771;BME280;18343;50.152;8.182;2023-04-20T12:31:41;97173.69;;;11.12;82.43
31771;BME280;18343;50.152;8.182;2023-04-20T12:34:26;97171.63;;;11.21;83.42
31771;BME280;18343;50.152;8.182;2023-04-20T12:37:10;97163.56;;;11.28;83.67
31771;BME280;18343;50.152;8.182;2023-04-20T12:39:54;97162.16;;;11.45;84.47
31771;BME280;18343;50.152;8.182;2023-04-20T12:42:40;97159.28;;;11.66;84.32
31771;BME280;18343;50.152;8.182;2023-04-20T12:45:25;97159.50;;;11.78;84.49
31771;BME280;18343;50.152;8.182;2023-04-20T12:48:10;97159.50;;;11.78;83.06
31771;BME280;18343;50.152;8.182;2023-04-20T12:50:54;97154.06;;;11.58;82.52
31771;BME280;18343;50.152;8.182;2023-04-20T12:53:39;97154.94;;;11.85;82.63
31771;BME280;18343;50.152;8.182;2023-04-20T12:56:24;97148.53;;;11.79;84.09
31771;BME280;18343;50.152;8.182;2023-04-20T12:59:09;97159.91;;;12.28;83.08
31771;BME280;18343;50.152;8.182;2023-04-20T13:01:54;97155.34;;;12.28;81.32
31771;BME280;18343;50.152;8.182;2023-04-20T13:04:39;97153.22;;;12.43;81.75
31771;BME280;18343;50.152;8.182;2023-04-20T13:07:23;97146.22;;;12.29;78.92
31771;BME280;18343;50.152;8.182;2023-04-20T13:10:09;97148.88;;;12.36;78.42
31771;BME280;18343;50.152;8.182;2023-04-20T13:12:53;97142.00;;;12.53;77.63
31771;BME280;18343;50.152;8.182;2023-04-20T13:15:39;97141.13;;;12.59;76.75
31771;BME280;18343;50.152;8.182;2023-04-20T13:18:24;97134.63;;;12.80;77.15
31771;BME280;18343;50.152;8.182;2023-04-20T13:21:08;97135.94;;;13.09;78.84
31771;BME280;18343;50.152;8.182;2023-04-20T13:23:53;97137.31;;;13.31;77.49
31771;BME280;18343;50.152;8.182;2023-04-20T13:26:38;97143.09;;;13.35;75.70
31771;BME280;18343;50.152;8.182;2023-04-20T13:29:23;97134.50;;;13.44;74.32
31771;BME280;18343;50.152;8.182;2023-04-20T13:32:09;97124.41;;;13.65;76.86
31771;BME280;18343;50.152;8.182;2023-04-20T13:34:53;97122.22;;;13.73;74.58
31771;BME280;18343;50.152;8.182;2023-04-20T13:37:38;97124.22;;;13.60;73.42
31771;BME280;18343;50.152;8.182;2023-04-20T13:40:23;97124.69;;;13.18;71.43
31771;BME280;18343;50.152;8.182;2023-04-20T13:43:07;97117.44;;;13.12;71.28
31771;BME280;18343;50.152;8.182;2023-04-20T13:45:52;97120.16;;;13.12;71.56
31771;BME280;18343;50.152;8.182;2023-04-20T13:48:37;97135.56;;;12.99;70.20
31771;BME280;18343;50.152;8.182;2023-04-20T13:51:23;97134.16;;;12.89;67.39
31771;BME280;18343;50.152;8.182;2023-04-20T13:54:08;97131.16;;;12.60;64.63
31771;BME280;18343;50.152;8.182;2023-04-20T13:56:52;97122.75;;;12.87;66.93
31771;BME280;18343;50.152;8.182;2023-04-20T13:59:37;97109.94;;;13.21;67.77
31771;BME280;18343;50.152;8.182;2023-04-20T14:02:21;97109.38;;;13.44;67.98
31771;BME280;18343;50.152;8.182;2023-04-20T14:05:08;97118.88;;;13.53;65.38
31771;BME280;18343;50.152;8.182;2023-04-20T14:07:52;97130.13;;;13.12;62.87
31771;BME280;18343;50.152;8.182;2023-04-20T14:10:38;97135.13;;;13.08;62.76
31771;BME280;18343;50.152;8.182;2023-04-20T14:13:23;97147.03;;;12.87;62.96
31771;BME280;18343;50.152;8.182;2023-04-20T14:16:08;97159.47;;;12.31;63.63
31771;BME280;18343;50.152;8.182;2023-04-20T14:18:53;97174.66;;;11.92;64.50
31771;BME280;18343;50.152;8.182;2023-04-20T14:21:40;97173.13;;;11.50;67.05
31771;BME280;18343;50.152;8.182;2023-04-20T14:24:25;97163.81;;;11.46;65.82
31771;BME280;18343;50.152;8.182;2023-04-20T14:27:09;97155.31;;;11.49;65.51
31771;BME280;18343;50.152;8.182;2023-04-20T14:29:57;97156.38;;;11.48;66.33
31771;BME280;18343;50.152;8.182;2023-04-20T14:32:53;97157.81;;;11.57;67.20
31771;BME280;18343;50.152;8.182;2023-04-20T14:35:38;97161.56;;;11.69;68.52
31771;BME280;18343;50.152;8.182;2023-04-20T14:38:24;97155.75;;;11.72;67.64
31771;BME280;18343;50.152;8.182;2023-04-20T14:41:09;97158.25;;;11.74;67.53
31771;BME280;18343;50.152;8.182;2023-04-20T14:43:53;97153.91;;;11.73;67.84